Lark Harbour, Canada
Current Conditions -  °F | °C
As of 3:00 AM on Monday 26 Jan 2015 (Local Time) from CYJT Reporting Station
Blowing Snow Blowing Snow  
Wind Chill:   Ceiling: 300
Heat Index: 23°   Visibility: 0.5mi
Dew Point: 19°   Wind: 39mph
Humidity: 86%   Direction: 230°SW
Pressure: 29.35"   Gusts: 48mph
Location:  49.1°N, 58.37°W
Report Text: CYJT 260600Z 23034G42KT 1/2SM R27/1800FT/N -SHSN BLSN VV003 M05/M07 A2935 RMK BLSN8 SLP940
Loading
Personal Weather Stations






























Interactive Weather Map New forecast layout! Learn more

10-Day Weather Forecast

Advertisements
Track Severe Weather on mobile